Time;durP1;ratioP1;P1;durP2;ratioP2;P2;SDS_P1;SDS_P2;PMS_P1;PMS_P2;Temp;Humidity;BMP_temperature;BMP_pressure;BME280_temperature;BME280_humidity;BME280_pressure;Samples;Min_cycle;Max_cycle;Signal;HPM_P1;HPM_P2
2022/07/09 00:00:09;;;;;;;3.20;1.58;;;15.10;99.90;;;;;;5001643;28;20019;-70
2022/07/09 00:02:36;;;;;;;14.82;2.35;;;15.00;99.90;;;;;;5002286;28;20029;-70
2022/07/09 00:05:01;;;;;;;7.32;1.60;;;15.00;99.90;;;;;;5002164;28;20027;-70
2022/07/09 00:07:27;;;;;;;7.38;2.05;;;15.00;99.90;;;;;;5000978;28;20035;-69
2022/07/09 00:09:53;;;;;;;3.55;1.70;;;15.00;99.90;;;;;;5002159;28;20021;-70
2022/07/09 00:12:18;;;;;;;12.40;1.25;;;15.00;99.90;;;;;;5001580;28;20031;-69
2022/07/09 00:14:44;;;;;;;5.53;2.35;;;15.00;99.90;;;;;;5001249;28;20053;-69
2022/07/09 00:17:10;;;;;;;5.85;2.38;;;15.00;99.90;;;;;;5002113;28;20070;-69
2022/07/09 00:19:36;;;;;;;3.65;1.90;;;15.00;99.90;;;;;;5001505;28;20042;-70
2022/07/09 00:22:02;;;;;;;4.07;2.15;;;15.00;99.90;;;;;;5001394;28;20029;-70
2022/07/09 00:24:28;;;;;;;6.20;1.85;;;15.00;99.90;;;;;;5001617;28;20090;-69
2022/07/09 00:26:53;;;;;;;3.33;1.77;;;15.00;99.90;;;;;;5001537;28;20466;-69
2022/07/09 00:29:19;;;;;;;6.10;2.33;;;15.00;99.90;;;;;;5001583;28;20019;-71
2022/07/09 00:31:45;;;;;;;7.30;2.20;;;15.00;99.90;;;;;;5001600;28;20060;-70
2022/07/09 00:34:12;;;;;;;2.13;1.52;;;15.00;99.90;;;;;;5001380;28;20511;-71
2022/07/09 00:36:38;;;;;;;2.88;1.77;;;15.00;99.90;;;;;;5001709;28;20027;-69
2022/07/09 00:39:04;;;;;;;4.32;1.58;;;15.00;99.90;;;;;;5001058;28;20057;-70
2022/07/09 00:41:30;;;;;;;2.50;1.33;;;14.90;99.90;;;;;;5001564;28;20038;-69
2022/07/09 00:43:56;;;;;;;5.78;2.08;;;14.90;99.90;;;;;;5001782;28;20026;-70
2022/07/09 00:46:21;;;;;;;4.45;2.33;;;14.90;99.90;;;;;;5001490;28;20038;-70
2022/07/09 00:48:47;;;;;;;2.60;1.92;;;14.90;99.90;;;;;;4999906;28;20045;-70
2022/07/09 00:51:14;;;;;;;4.40;1.92;;;14.90;99.90;;;;;;5000968;28;20041;-70
2022/07/09 00:53:40;;;;;;;7.20;2.55;;;14.90;99.90;;;;;;5001273;28;20027;-70
2022/07/09 00:56:06;;;;;;;12.55;2.13;;;14.90;99.90;;;;;;5001103;28;20042;-69
2022/07/09 00:58:36;;;;;;;4.68;2.55;;;14.90;99.90;;;;;;5001815;28;20022;-70
2022/07/09 01:01:03;;;;;;;2.83;1.67;;;14.90;99.90;;;;;;5001197;28;20451;-71
2022/07/09 01:03:28;;;;;;;8.18;2.22;;;14.90;99.90;;;;;;5001270;28;20033;-68
2022/07/09 01:05:56;;;;;;;6.35;2.50;;;14.90;99.90;;;;;;5000930;28;20026;-68
2022/07/09 01:08:22;;;;;;;5.22;1.80;;;14.90;99.90;;;;;;5001423;28;20049;-68
2022/07/09 01:10:51;;;;;;;3.70;2.08;;;15.00;99.90;;;;;;5001128;28;20027;-68
2022/07/09 01:13:16;;;;;;;5.70;2.13;;;14.90;99.90;;;;;;5001065;28;20029;-68
2022/07/09 01:15:42;;;;;;;2.83;1.63;;;14.80;99.90;;;;;;5001332;28;20022;-69
2022/07/09 01:18:11;;;;;;;7.00;2.63;;;14.80;99.90;;;;;;5002124;28;20025;-69
2022/07/09 01:20:37;;;;;;;6.07;2.50;;;14.80;99.90;;;;;;5004512;28;20022;-69
2022/07/09 01:23:04;;;;;;;4.32;1.90;;;14.80;99.90;;;;;;5004879;28;20033;-70
2022/07/09 01:25:39;;;;;;;3.63;2.10;;;14.80;99.90;;;;;;5004776;28;20042;-69
2022/07/09 01:28:05;;;;;;;;;;;14.80;99.90;;;;;;5004827;28;20450;-70
2022/07/09 01:30:33;;;;;;;16.35;2.97;;;14.80;99.90;;;;;;5004715;28;19921;-69
2022/07/09 01:32:58;;;;;;;4.20;2.53;;;14.80;99.90;;;;;;5004592;28;20042;-69
2022/07/09 01:35:24;;;;;;;5.05;2.03;;;14.80;99.90;;;;;;5004620;28;20053;-70
2022/07/09 01:37:50;;;;;;;5.43;2.13;;;14.80;99.90;;;;;;5004185;28;20062;-69
2022/07/09 01:40:16;;;;;;;3.13;1.73;;;14.80;99.90;;;;;;5004481;28;20046;-69
2022/07/09 01:42:42;;;;;;;6.45;2.13;;;14.90;99.90;;;;;;5002657;28;20034;-70
2022/07/09 01:45:08;;;;;;;3.38;2.08;;;14.80;99.90;;;;;;5004040;28;20029;-70
2022/07/09 01:47:33;;;;;;;4.80;1.88;;;14.90;99.90;;;;;;5004602;28;20046;-71
2022/07/09 01:49:59;;;;;;;8.90;2.60;;;14.90;99.90;;;;;;5004469;28;20033;-70
2022/07/09 01:52:25;;;;;;;2.95;2.00;;;14.90;99.90;;;;;;5004000;28;20081;-70
2022/07/09 01:54:51;;;;;;;10.07;2.60;;;14.80;99.90;;;;;;5003770;28;20025;-69
2022/07/09 01:57:19;;;;;;;3.22;1.98;;;14.80;99.90;;;;;;5004350;28;20058;-70
2022/07/09 01:59:45;;;;;;;3.88;1.83;;;14.80;99.90;;;;;;5003530;28;20030;-70
2022/07/09 02:02:10;;;;;;;6.63;2.20;;;14.80;99.90;;;;;;5004041;28;20030;-71
2022/07/09 02:04:36;;;;;;;3.75;2.38;;;14.80;99.90;;;;;;5004010;28;20035;-70
2022/07/09 02:07:01;;;;;;;3.03;1.65;;;14.80;99.90;;;;;;5003908;28;20073;-70
2022/07/09 02:09:27;;;;;;;6.82;2.10;;;14.80;99.90;;;;;;5003635;28;20030;-69
2022/07/09 02:11:53;;;;;;;4.03;2.45;;;14.70;99.90;;;;;;5003601;28;20046;-68
2022/07/09 02:14:18;;;;;;;5.15;2.67;;;14.70;99.90;;;;;;5003585;28;20049;-69
2022/07/09 02:16:44;;;;;;;6.90;2.70;;;14.70;99.90;;;;;;5003831;28;20027;-69
2022/07/09 02:19:10;;;;;;;4.30;2.72;;;14.80;99.90;;;;;;5003615;28;20038;-70
2022/07/09 02:21:36;;;;;;;3.65;2.25;;;14.70;99.90;;;;;;5003203;28;20026;-70
2022/07/09 02:24:01;;;;;;;6.95;2.42;;;14.80;99.90;;;;;;5003780;28;20487;-71
2022/07/09 02:26:29;;;;;;;12.57;3.28;;;14.70;99.90;;;;;;5003488;28;20058;-70
2022/07/09 02:28:55;;;;;;;14.30;3.40;;;14.70;99.90;;;;;;5003580;28;20034;-69
2022/07/09 02:31:20;;;;;;;5.45;3.00;;;14.80;99.90;;;;;;5002590;28;20026;-68
2022/07/09 02:33:46;;;;;;;8.32;3.28;;;14.80;99.90;;;;;;5003216;28;20389;-69
2022/07/09 02:36:12;;;;;;;7.28;3.63;;;14.80;99.90;;;;;;5003140;28;20533;-69
2022/07/09 02:38:38;;;;;;;5.75;3.70;;;14.80;99.90;;;;;;5003262;28;20042;-70
2022/07/09 02:41:03;;;;;;;9.07;3.75;;;14.80;99.90;;;;;;5002587;28;20037;-69
2022/07/09 02:43:29;;;;;;;4.85;2.88;;;14.80;99.90;;;;;;5003169;28;20509;-70
2022/07/09 02:45:55;;;;;;;24.77;3.22;;;14.90;99.90;;;;;;5003247;28;20031;-70
2022/07/09 02:48:22;;;;;;;4.13;2.97;;;14.80;99.90;;;;;;5002886;28;20394;-69
2022/07/09 02:50:49;;;;;;;14.80;4.05;;;14.80;99.90;;;;;;5003205;28;20118;-70
2022/07/09 02:53:15;;;;;;;5.63;3.50;;;14.80;99.90;;;;;;5002815;28;20515;-70
2022/07/09 02:55:41;;;;;;;9.65;3.50;;;14.80;99.90;;;;;;5002637;28;20030;-71
2022/07/09 02:58:06;;;;;;;6.68;3.22;;;14.80;99.90;;;;;;5002615;28;20034;-71
2022/07/09 03:00:32;;;;;;;6.68;3.30;;;14.80;99.90;;;;;;5002927;28;20121;-71
2022/07/09 03:02:58;;;;;;;6.15;3.00;;;14.80;99.90;;;;;;5002863;28;20023;-70
2022/07/09 03:05:24;;;;;;;7.07;3.58;;;14.80;99.90;;;;;;5002850;28;20056;-69
2022/07/09 03:07:49;;;;;;;11.32;3.50;;;14.80;99.90;;;;;;5002618;28;20069;-70
2022/07/09 03:10:15;;;;;;;4.85;2.88;;;14.70;99.90;;;;;;5002013;28;20121;-70
2022/07/09 03:12:41;;;;;;;7.38;3.35;;;14.70;99.90;;;;;;5002446;28;20523;-70
2022/07/09 03:15:07;;;;;;;4.68;3.15;;;14.70;99.90;;;;;;5002491;28;20026;-69
2022/07/09 03:17:33;;;;;;;7.82;2.85;;;14.80;99.90;;;;;;5002994;28;20090;-70
2022/07/09 03:19:58;;;;;;;4.50;2.65;;;14.80;99.90;;;;;;5003041;28;20046;-69
2022/07/09 03:22:24;;;;;;;6.78;2.55;;;14.80;99.90;;;;;;5002215;28;20019;-70
2022/07/09 03:24:49;;;;;;;3.80;2.20;;;14.80;99.90;;;;;;5002641;28;20030;-71
2022/07/09 03:27:15;;;;;;;5.13;2.28;;;14.80;99.90;;;;;;5002366;28;20038;-69
2022/07/09 03:29:41;;;;;;;5.25;3.38;;;14.80;99.90;;;;;;5002259;28;20018;-70
2022/07/09 03:32:07;;;;;;;5.15;2.80;;;14.80;99.90;;;;;;5002183;28;20386;-70
2022/07/09 03:34:33;;;;;;;5.43;2.85;;;14.80;99.90;;;;;;5002651;28;20018;-69
2022/07/09 03:36:59;;;;;;;4.38;2.17;;;14.80;99.90;;;;;;5002224;28;20023;-70
2022/07/09 03:39:25;;;;;;;5.95;2.28;;;14.80;99.90;;;;;;5002161;28;20053;-70
2022/07/09 03:41:51;;;;;;;5.78;2.80;;;14.90;99.90;;;;;;5000413;28;20027;-71
2022/07/09 03:44:16;;;;;;;9.90;2.60;;;14.80;99.90;;;;;;5001899;28;20030;-70
2022/07/09 03:46:42;;;;;;;8.35;2.70;;;14.70;99.90;;;;;;5002070;28;20018;-70
2022/07/09 03:49:08;;;;;;;5.75;2.35;;;14.70;99.90;;;;;;5002212;28;20528;-68
2022/07/09 03:51:33;;;;;;;7.90;2.92;;;14.70;99.90;;;;;;5002383;28;20022;-69
2022/07/09 03:53:59;;;;;;;4.68;2.58;;;14.70;99.90;;;;;;5002256;28;20073;-69
2022/07/09 03:56:25;;;;;;;8.00;3.28;;;14.80;99.90;;;;;;5001725;28;20026;-69
2022/07/09 03:58:50;;;;;;;3.13;2.00;;;14.70;99.90;;;;;;5002059;28;20089;-69
2022/07/09 04:01:16;;;;;;;3.72;2.22;;;14.60;99.90;;;;;;5002269;28;20034;-69
2022/07/09 04:03:41;;;;;;;3.42;2.53;;;14.70;99.90;;;;;;5001740;28;20080;-68
2022/07/09 04:06:07;;;;;;;7.53;2.60;;;14.70;99.90;;;;;;5002114;28;20097;-68
2022/07/09 04:08:35;;;;;;;5.50;2.75;;;14.70;99.90;;;;;;5001826;28;20069;-71
2022/07/09 04:11:01;;;;;;;6.40;2.75;;;14.80;99.90;;;;;;5001581;28;20026;-70
2022/07/09 04:13:26;;;;;;;11.48;3.83;;;14.70;99.90;;;;;;5001650;28;20090;-70
2022/07/09 04:15:52;;;;;;;5.32;3.17;;;14.70;99.90;;;;;;5002062;28;20070;-69
2022/07/09 04:18:18;;;;;;;8.07;3.05;;;14.70;99.90;;;;;;5001175;28;20029;-70
2022/07/09 04:20:44;;;;;;;8.15;2.88;;;14.70;99.90;;;;;;5001892;28;20019;-70
2022/07/09 04:23:09;;;;;;;6.35;2.67;;;14.70;99.90;;;;;;5001971;28;20030;-72
2022/07/09 04:25:35;;;;;;;6.07;2.90;;;14.80;99.90;;;;;;5001512;28;20102;-68
2022/07/09 04:28:01;;;;;;;6.40;3.10;;;14.80;99.90;;;;;;5000704;28;20038;-68
2022/07/09 04:30:27;;;;;;;9.68;4.13;;;14.80;99.90;;;;;;5001458;28;20030;-68
2022/07/09 04:32:53;;;;;;;9.15;3.85;;;14.80;99.90;;;;;;5001525;28;20458;-68
2022/07/09 04:35:19;;;;;;;12.48;4.07;;;14.80;99.90;;;;;;5001662;28;20026;-68
2022/07/09 04:37:44;;;;;;;7.85;3.15;;;14.90;99.90;;;;;;5001446;28;20026;-70
2022/07/09 04:40:11;;;;;;;5.65;3.13;;;14.90;99.90;;;;;;5000435;28;20046;-70
2022/07/09 04:42:36;;;;;;;7.93;3.70;;;14.90;99.90;;;;;;5001259;28;20089;-69
2022/07/09 04:45:02;;;;;;;8.48;4.55;;;14.90;99.90;;;;;;5000944;28;20027;-69
2022/07/09 04:47:28;;;;;;;13.45;4.05;;;14.90;99.90;;;;;;4998907;28;20046;-70
2022/07/09 04:49:54;;;;;;;11.20;3.63;;;15.00;99.90;;;;;;5000451;28;20030;-70
2022/07/09 04:52:19;;;;;;;5.60;3.65;;;15.00;99.90;;;;;;4998328;28;20026;-69
2022/07/09 04:54:46;;;;;;;6.13;3.42;;;15.10;99.90;;;;;;5003683;28;20053;-70
2022/07/09 04:57:11;;;;;;;11.70;4.30;;;15.10;99.90;;;;;;5002432;28;20189;-72
2022/07/09 04:59:37;;;;;;;10.50;4.53;;;15.10;99.90;;;;;;5003913;28;20070;-71
2022/07/09 05:02:03;;;;;;;5.88;3.35;;;15.10;99.90;;;;;;5001391;28;20042;-69
2022/07/09 05:04:30;;;;;;;9.10;3.92;;;15.20;99.90;;;;;;5003532;28;20030;-68
2022/07/09 05:06:56;;;;;;;9.35;4.03;;;15.20;99.90;;;;;;5002909;28;20065;-69
2022/07/09 05:09:22;;;;;;;6.90;3.47;;;15.20;99.90;;;;;;5003298;28;20023;-69
2022/07/09 05:11:47;;;;;;;9.70;3.08;;;15.30;99.90;;;;;;5003182;28;20033;-69
2022/07/09 05:14:13;;;;;;;6.97;3.22;;;15.30;99.90;;;;;;5002258;28;20046;-69
2022/07/09 05:16:44;;;;;;;9.68;3.90;;;15.30;99.90;;;;;;5002287;28;20034;-69
2022/07/09 05:19:10;;;;;;;7.38;2.90;;;15.40;99.90;;;;;;5002956;28;20049;-70
2022/07/09 05:21:36;;;;;;;8.00;3.70;;;15.30;99.90;;;;;;5003940;28;20034;-69
2022/07/09 05:24:02;;;;;;;6.53;3.50;;;15.40;99.90;;;;;;5008176;28;20435;-71
2022/07/09 05:26:29;;;;;;;18.55;3.67;;;15.40;99.90;;;;;;5001182;28;20045;-69
2022/07/09 05:28:55;;;;;;;7.72;3.70;;;15.40;99.90;;;;;;5004080;28;20057;-69
2022/07/09 05:31:21;;;;;;;7.68;3.45;;;15.50;99.90;;;;;;5004600;28;20026;-69
2022/07/09 05:33:47;;;;;;;10.23;3.67;;;15.50;99.90;;;;;;5004054;28;20602;-70
2022/07/09 05:36:13;;;;;;;9.40;3.65;;;15.60;99.90;;;;;;5003893;28;20471;-70
2022/07/09 05:38:38;;;;;;;4.88;3.78;;;15.60;99.90;;;;;;5004617;28;20042;-71
2022/07/09 05:41:04;;;;;;;8.15;3.83;;;15.70;99.90;;;;;;5001439;28;20061;-69
2022/07/09 05:43:29;;;;;;;6.90;4.05;;;15.60;99.90;;;;;;5001658;28;20034;-69
2022/07/09 05:45:55;;;;;;;6.15;4.18;;;15.70;99.90;;;;;;5003138;28;20042;-69
2022/07/09 05:48:21;;;;;;;5.32;3.75;;;15.80;99.90;;;;;;5004341;28;20073;-68
2022/07/09 05:50:46;;;;;;;13.98;4.57;;;15.80;99.90;;;;;;5004824;28;20033;-68
2022/07/09 05:53:12;;;;;;;5.88;3.35;;;15.80;99.90;;;;;;5003468;28;20026;-71
2022/07/09 05:55:37;;;;;;;6.72;4.00;;;15.80;99.90;;;;;;5004454;28;20026;-69
2022/07/09 05:58:04;;;;;;;7.82;4.38;;;15.80;99.90;;;;;;5004794;28;20522;-69
2022/07/09 06:00:29;;;;;;;5.15;3.17;;;15.90;99.90;;;;;;5004682;28;20022;-69
2022/07/09 06:02:55;;;;;;;7.15;3.55;;;15.90;99.90;;;;;;5003732;28;20061;-69
2022/07/09 06:05:20;;;;;;;13.40;3.85;;;15.90;99.90;;;;;;5002021;28;20033;-68
2022/07/09 06:07:46;;;;;;;10.23;4.07;;;16.00;99.90;;;;;;5003161;28;20097;-69
2022/07/09 06:10:14;;;;;;;6.00;3.72;;;16.10;99.90;;;;;;5002633;28;20491;-69
2022/07/09 06:12:41;;;;;;;6.57;3.80;;;16.10;99.90;;;;;;5004257;28;20497;-69
2022/07/09 06:15:08;;;;;;;4.97;3.67;;;16.10;99.90;;;;;;5002611;28;20038;-69
2022/07/09 06:17:34;;;;;;;10.98;3.70;;;16.20;99.90;;;;;;5003710;28;20049;-70
2022/07/09 06:20:00;;;;;;;8.27;3.88;;;16.20;99.90;;;;;;5003601;28;20039;-70
2022/07/09 06:22:25;;;;;;;8.13;3.72;;;16.10;99.90;;;;;;5003317;28;20030;-71
2022/07/09 06:24:51;;;;;;;7.95;4.32;;;16.40;99.90;;;;;;5004167;28;20164;-68
2022/07/09 06:27:17;;;;;;;7.53;3.75;;;16.40;99.90;;;;;;5003899;28;20034;-69
2022/07/09 06:29:42;;;;;;;8.95;3.85;;;16.50;99.90;;;;;;5003953;28;20069;-69
2022/07/09 06:32:08;;;;;;;5.78;3.03;;;16.50;99.90;;;;;;5004119;28;20085;-69
2022/07/09 06:34:35;;;;;;;3.08;2.22;;;16.60;99.90;;;;;;5002961;28;20026;-70
2022/07/09 06:37:01;;;;;;;5.22;2.78;;;16.70;99.90;;;;;;5002090;28;20120;-69
2022/07/09 06:39:45;;;;;;;7.65;2.90;;;16.70;99.90;;;;;;5003280;28;20132;-69
2022/07/09 06:42:14;;;;;;;12.02;3.92;;;16.80;99.90;;;;;;5002947;28;20086;-69
2022/07/09 06:44:40;;;;;;;6.38;3.15;;;16.80;99.90;;;;;;5002079;28;20026;-69
2022/07/09 06:47:06;;;;;;;5.25;2.92;;;16.90;99.90;;;;;;5002684;28;20030;-69
2022/07/09 06:49:32;;;;;;;4.28;3.00;;;16.90;99.90;;;;;;5002228;28;20041;-70
2022/07/09 06:51:58;;;;;;;4.45;2.72;;;16.90;99.90;;;;;;5002947;28;20053;-71
2022/07/09 06:54:24;;;;;;;6.82;2.50;;;17.00;99.90;;;;;;5000285;28;20811;-70
2022/07/09 06:56:51;;;;;;;4.25;2.15;;;17.00;99.90;;;;;;5001523;28;20045;-69
2022/07/09 06:59:18;;;;;;;9.98;2.53;;;17.00;99.90;;;;;;5001810;28;20029;-70
2022/07/09 07:01:46;;;;;;;5.63;2.42;;;17.00;99.90;;;;;;5002010;28;20030;-72
2022/07/09 07:04:12;;;;;;;5.97;2.22;;;17.10;99.90;;;;;;5001427;28;20026;-70
2022/07/09 07:06:38;;;;;;;4.30;2.28;;;17.10;99.90;;;;;;5002620;28;20022;-69
2022/07/09 07:09:04;;;;;;;9.02;3.45;;;17.10;99.90;;;;;;5002057;28;20030;-69
2022/07/09 07:11:30;;;;;;;7.00;2.78;;;17.10;99.90;;;;;;5001947;28;20041;-70
2022/07/09 07:13:55;;;;;;;6.47;2.10;;;17.10;99.90;;;;;;5001851;28;20037;-69
2022/07/09 07:16:21;;;;;;;3.25;2.00;;;17.10;99.90;;;;;;5002169;28;20038;-68
2022/07/09 07:18:46;;;;;;;3.15;1.67;;;17.20;99.90;;;;;;5002958;28;20030;-69
2022/07/09 07:21:12;;;;;;;6.15;2.13;;;17.20;99.90;;;;;;5001263;28;20568;-69
2022/07/09 07:23:37;;;;;;;2.28;1.52;;;17.30;99.90;;;;;;5002610;28;20030;-69
2022/07/09 07:26:03;;;;;;;8.88;2.60;;;17.30;99.90;;;;;;5002697;28;20022;-70
2022/07/09 07:28:29;;;;;;;3.15;1.42;;;17.40;99.90;;;;;;5002212;28;20768;-69
2022/07/09 07:30:55;;;;;;;4.40;2.28;;;17.50;99.90;;;;;;5002650;28;20061;-70
2022/07/09 07:33:20;;;;;;;3.88;2.20;;;17.50;99.90;;;;;;5000566;28;20037;-71
2022/07/09 07:35:46;;;;;;;2.33;1.50;;;17.50;99.90;;;;;;5001586;28;20027;-70
2022/07/09 07:38:12;;;;;;;3.17;1.80;;;17.60;99.90;;;;;;4996189;28;20081;-69
2022/07/09 07:40:37;;;;;;;3.78;2.00;;;17.60;99.90;;;;;;5001188;28;20026;-72
2022/07/09 07:43:03;;;;;;;2.53;1.40;;;17.70;99.90;;;;;;5002051;28;20039;-71
2022/07/09 07:45:30;;;;;;;2.17;1.50;;;17.80;99.90;;;;;;5000711;28;20072;-68
2022/07/09 07:47:56;;;;;;;3.05;1.73;;;17.80;99.90;;;;;;5000658;28;20053;-70
2022/07/09 07:50:22;;;;;;;1.60;1.40;;;17.90;99.90;;;;;;5001556;28;20032;-72
2022/07/09 07:52:48;;;;;;;1.98;1.50;;;17.90;99.90;;;;;;5001830;28;20498;-73
2022/07/09 07:55:14;;;;;;;2.45;1.23;;;18.00;99.90;;;;;;5001497;28;20113;-70
2022/07/09 07:57:40;;;;;;;2.80;1.48;;;18.10;99.90;;;;;;5007405;28;20058;-71
2022/07/09 08:00:07;;;;;;;4.13;1.55;;;18.20;99.90;;;;;;5000441;28;20048;-71
2022/07/09 08:02:34;;;;;;;4.13;1.20;;;18.30;99.90;;;;;;5001537;28;20029;-71
2022/07/09 08:05:00;;;;;;;2.42;1.30;;;18.30;99.90;;;;;;5002512;28;20034;-70
2022/07/09 08:07:25;;;;;;;1.73;0.90;;;18.40;99.90;;;;;;5000244;28;20380;-71
2022/07/09 08:09:51;;;;;;;1.80;0.95;;;18.40;99.90;;;;;;5000297;28;20042;-72
2022/07/09 08:12:16;;;;;;;3.17;1.13;;;18.50;99.90;;;;;;5000968;28;20026;-72
2022/07/09 08:14:42;;;;;;;2.78;1.20;;;18.60;99.90;;;;;;4999890;28;20387;-69
2022/07/09 08:17:08;;;;;;;3.47;1.35;;;18.60;99.90;;;;;;5000259;28;20033;-71
2022/07/09 08:19:33;;;;;;;2.95;0.73;;;18.60;99.90;;;;;;5001083;28;20022;-70
2022/07/09 08:21:59;;;;;;;1.77;1.05;;;18.60;99.90;;;;;;5002209;28;20498;-68
2022/07/09 08:24:26;;;;;;;1.60;0.70;;;18.70;99.90;;;;;;5001938;28;20045;-71
2022/07/09 08:26:52;;;;;;;1.42;0.68;;;18.80;99.90;;;;;;4999628;28;20033;-69
2022/07/09 08:29:17;;;;;;;0.82;0.80;;;18.80;99.90;;;;;;5002179;28;20450;-68
2022/07/09 08:31:43;;;;;;;1.77;0.80;;;18.70;99.90;;;;;;5005166;28;20022;-69
2022/07/09 08:34:09;;;;;;;1.45;0.90;;;18.70;99.90;;;;;;5003534;28;20050;-71
2022/07/09 08:36:34;;;;;;;0.80;0.63;;;18.80;99.90;;;;;;5002290;28;20040;-70
2022/07/09 08:39:00;;;;;;;4.47;1.55;;;18.90;99.90;;;;;;5004187;28;20128;-72
2022/07/09 08:41:26;;;;;;;1.55;0.80;;;19.10;99.90;;;;;;5005120;28;20050;-72
2022/07/09 08:43:52;;;;;;;6.85;1.52;;;19.30;99.90;;;;;;5005633;28;20084;-69
2022/07/09 08:46:18;;;;;;;2.35;1.02;;;19.50;99.90;;;;;;5003477;28;20029;-69
2022/07/09 08:48:45;;;;;;;3.08;1.30;;;19.60;99.90;;;;;;5006029;28;20038;-70
2022/07/09 08:51:11;;;;;;;2.45;0.95;;;19.60;99.90;;;;;;5005493;28;20026;-71
2022/07/09 08:53:42;;;;;;;1.33;0.88;;;19.60;99.90;;;;;;5004719;28;20037;-68
2022/07/09 08:56:08;;;;;;;1.00;0.47;;;19.70;99.90;;;;;;5001773;28;20038;-70
2022/07/09 08:58:43;;;;;;;0.88;0.70;;;19.90;99.90;;;;;;5002302;28;20406;-71
2022/07/09 09:01:11;;;;;;;;;;;19.90;99.90;;;;;;5000590;28;20053;-71
2022/07/09 09:03:37;;;;;;;2.45;1.15;;;19.90;99.90;;;;;;5002355;28;19905;-69
2022/07/09 09:06:05;;;;;;;2.42;1.00;;;19.80;99.90;;;;;;5002139;28;20036;-71
2022/07/09 09:08:41;;;;;;;4.95;0.82;;;19.60;99.90;;;;;;5001357;28;20069;-69
2022/07/09 09:11:15;;;;;;;19.95;1.20;;;19.70;99.90;;;;;;5005198;28;20030;-71
2022/07/09 09:13:45;;;;;;;1.33;0.88;;;19.70;99.90;;;;;;5003765;28;20061;-70
2022/07/09 09:16:13;;;;;;;1.95;0.88;;;19.80;99.90;;;;;;5004186;28;20034;-71
2022/07/09 09:18:52;;;;;;;2.15;0.75;;;19.80;99.90;;;;;;5003741;28;20026;-70
2022/07/09 09:21:21;;;;;;;0.63;0.52;;;19.80;99.90;;;;;;5001643;28;20026;-72
2022/07/09 09:23:53;;;;;;;6.85;0.95;;;19.70;99.90;;;;;;5004281;28;20019;-70
2022/07/09 09:26:19;;;;;;;0.82;0.70;;;19.70;99.90;;;;;;5003441;28;20026;-69
2022/07/09 09:28:59;;;;;;;0.90;0.55;;;19.70;99.90;;;;;;5003094;28;20042;-68
2022/07/09 09:31:32;;;;;;;0.82;0.50;;;19.80;99.90;;;;;;5002532;28;20107;-66
2022/07/09 09:34:18;;;;;;;2.45;0.85;;;20.10;99.90;;;;;;5002654;28;20034;-66
2022/07/09 09:36:45;;;;;;;0.28;0.28;;;20.40;99.90;;;;;;5001398;28;20025;-68
2022/07/09 09:39:24;;;;;;;1.17;0.57;;;20.60;99.90;;;;;;5001212;28;20038;-68
2022/07/09 09:41:52;;;;;;;1.25;0.80;;;20.70;99.90;;;;;;5002247;28;20030;-68
2022/07/09 09:44:26;;;;;;;3.83;0.90;;;20.80;99.90;;;;;;5003040;28;20018;-71
2022/07/09 09:46:53;;;;;;;2.78;0.88;;;20.90;99.90;;;;;;5004623;28;20117;-69
2022/07/09 09:49:25;;;;;;;0.68;0.43;;;20.90;99.90;;;;;;5002449;28;20026;-70
2022/07/09 09:52:03;;;;;;;0.82;0.55;;;20.90;99.90;;;;;;5003059;28;20033;-70
2022/07/09 09:54:30;;;;;;;0.82;0.63;;;21.00;99.90;;;;;;5003645;28;20086;-68
2022/07/09 09:56:58;;;;;;;1.17;0.47;;;20.90;99.90;;;;;;5003139;28;20395;-69
2022/07/09 09:59:24;;;;;;;0.32;0.32;;;20.80;99.90;;;;;;5003637;28;20027;-70
2022/07/09 10:01:49;;;;;;;0.90;0.50;;;20.50;99.90;;;;;;5003189;28;20030;-68
2022/07/09 10:04:15;;;;;;;0.75;0.40;;;20.40;99.90;;;;;;5003123;28;20141;-69
2022/07/09 10:06:42;;;;;;;0.75;0.55;;;20.30;99.90;;;;;;5001356;28;20525;-69
2022/07/09 10:09:11;;;;;;;1.60;0.55;;;20.30;99.90;;;;;;5002613;28;20047;-70
2022/07/09 10:11:41;;;;;;;0.65;0.40;;;20.20;99.90;;;;;;4999756;28;20140;-73
2022/07/09 10:14:07;;;;;;;0.40;0.38;;;20.20;99.90;;;;;;5000640;28;20058;-70
2022/07/09 10:16:38;;;;;;;0.75;0.75;;;20.30;99.90;;;;;;4998299;28;20026;-71
2022/07/09 10:19:05;;;;;;;1.25;0.80;;;20.30;99.90;;;;;;5003269;28;20022;-70
2022/07/09 10:21:38;;;;;;;3.50;0.50;;;20.20;99.90;;;;;;5001957;28;20947;-70
2022/07/09 10:24:05;;;;;;;0.60;0.47;;;20.00;99.90;;;;;;5001963;28;20026;-70
2022/07/09 10:26:48;;;;;;;0.43;0.30;;;20.00;99.90;;;;;;5001758;28;20041;-71
2022/07/09 10:29:20;;;;;;;10.60;1.02;;;20.10;99.90;;;;;;5002135;28;20060;-70
2022/07/09 10:31:47;;;;;;;4.55;1.15;;;20.30;99.90;;;;;;5001736;28;20384;-69
2022/07/09 10:34:42;;;;;;;12.88;0.50;;;20.40;99.90;;;;;;5002353;28;20054;-72
2022/07/09 10:37:07;;;;;;;7.53;0.90;;;20.40;99.90;;;;;;5000778;28;20053;-72
2022/07/09 10:39:34;;;;;;;0.40;0.40;;;20.40;99.90;;;;;;5002847;28;20039;-70
2022/07/09 10:42:06;;;;;;;0.77;0.60;;;20.40;99.90;;;;;;5002852;28;20026;-69
2022/07/09 10:44:37;;;;;;;0.75;0.52;;;20.60;99.90;;;;;;5002009;28;20026;-70
2022/07/09 10:47:06;;;;;;;0.82;0.45;;;20.80;99.90;;;;;;4999384;28;20026;-71
2022/07/09 10:49:36;;;;;;;1.08;0.63;;;21.00;99.90;;;;;;5002755;28;20045;-74
2022/07/09 10:52:06;;;;;;;2.83;0.80;;;21.20;99.90;;;;;;5000873;28;20085;-69
2022/07/09 10:54:32;;;;;;;2.67;0.60;;;21.60;99.90;;;;;;5001530;28;20026;-70
2022/07/09 10:57:01;;;;;;;0.98;0.50;;;21.70;99.90;;;;;;5002732;28;20030;-70
2022/07/09 10:59:27;;;;;;;0.65;0.60;;;21.80;99.90;;;;;;5002129;28;20085;-69
2022/07/09 11:01:55;;;;;;;2.65;0.90;;;21.80;99.90;;;;;;5002292;28;20422;-69
2022/07/09 11:04:28;;;;;;;1.42;0.77;;;21.60;99.90;;;;;;5002109;28;20038;-69
2022/07/09 11:06:54;;;;;;;0.63;0.50;;;21.50;99.90;;;;;;5001503;28;20038;-69
2022/07/09 11:09:19;;;;;;;2.28;0.82;;;21.60;99.90;;;;;;5001877;28;20048;-68
2022/07/09 11:11:47;;;;;;;1.40;0.70;;;21.70;99.90;;;;;;5002432;28;20546;-71
2022/07/09 11:14:13;;;;;;;2.05;0.90;;;21.70;99.90;;;;;;5001272;28;20026;-70
2022/07/09 11:16:38;;;;;;;0.75;0.22;;;21.70;99.90;;;;;;5002612;28;20057;-69
2022/07/09 11:19:18;;;;;;;1.50;0.90;;;21.80;99.90;;;;;;5001212;28;20034;-71
2022/07/09 11:21:44;;;;;;;2.20;0.70;;;21.90;99.90;;;;;;5001755;28;20037;-68
2022/07/09 11:24:19;;;;;;;1.73;1.00;;;21.70;99.90;;;;;;5001103;28;20098;-68
2022/07/09 11:26:45;;;;;;;0.30;0.20;;;21.20;99.90;;;;;;5001578;28;20034;-69
2022/07/09 11:29:11;;;;;;;0.57;0.47;;;21.20;99.90;;;;;;5002107;28;20521;-70
2022/07/09 11:31:45;;;;;;;1.40;0.82;;;21.30;99.90;;;;;;5002001;28;20038;-70
2022/07/09 11:34:11;;;;;;;1.55;0.52;;;21.70;99.90;;;;;;5001738;28;20376;-69
2022/07/09 11:36:38;;;;;;;2.22;0.63;;;21.90;99.90;;;;;;5002505;28;20026;-72
2022/07/09 11:39:03;;;;;;;2.70;0.90;;;21.90;99.90;;;;;;5001534;28;20089;-70
2022/07/09 11:41:43;;;;;;;0.75;0.47;;;21.80;99.90;;;;;;4999865;28;20026;-68
2022/07/09 11:44:09;;;;;;;0.93;0.43;;;21.50;99.90;;;;;;5000844;28;20029;-70
2022/07/09 11:46:35;;;;;;;2.03;0.40;;;21.30;99.90;;;;;;5002036;28;20120;-69
2022/07/09 11:49:00;;;;;;;1.40;0.60;;;21.10;99.90;;;;;;5001059;28;20066;-69
2022/07/09 11:51:34;;;;;;;0.50;0.35;;;20.90;99.90;;;;;;5001757;28;20038;-70
2022/07/09 11:54:01;;;;;;;2.25;0.68;;;20.60;99.90;;;;;;5001704;28;20053;-72
2022/07/09 11:56:26;;;;;;;0.88;0.60;;;20.50;99.90;;;;;;5001800;28;20073;-72
2022/07/09 11:58:53;;;;;;;0.80;0.50;;;20.20;99.90;;;;;;5001169;28;20065;-69
2022/07/09 12:01:19;;;;;;;2.90;0.52;;;20.00;99.90;;;;;;5001577;28;20049;-69
2022/07/09 12:03:49;;;;;;;0.88;0.73;;;20.10;99.90;;;;;;5000924;28;20036;-67
2022/07/09 12:06:16;;;;;;;2.38;0.93;;;20.10;99.90;;;;;;5000637;28;20031;-69
2022/07/09 12:08:42;;;;;;;1.60;0.70;;;20.40;99.90;;;;;;5001337;28;20053;-69
2022/07/09 12:11:07;;;;;;;2.33;0.88;;;20.70;99.90;;;;;;5000168;28;20022;-68
2022/07/09 12:13:34;;;;;;;2.58;0.95;;;20.90;99.90;;;;;;5002045;28;20049;-68
2022/07/09 12:16:00;;;;;;;1.52;1.08;;;20.90;99.90;;;;;;4998989;28;20018;-67
2022/07/09 12:18:25;;;;;;;1.92;0.90;;;20.90;99.90;;;;;;5000876;28;20046;-68
2022/07/09 12:20:51;;;;;;;0.90;0.68;;;21.10;99.90;;;;;;5000919;28;20037;-68
2022/07/09 12:23:16;;;;;;;2.28;0.77;;;21.40;99.90;;;;;;5001557;28;20058;-66
2022/07/09 12:25:42;;;;;;;3.95;0.88;;;21.30;99.90;;;;;;5001354;28;20022;-73
2022/07/09 12:28:08;;;;;;;0.73;0.70;;;21.30;99.90;;;;;;5001050;28;20049;-69
2022/07/09 12:30:34;;;;;;;2.92;0.90;;;21.50;99.90;;;;;;5001598;28;20030;-70
2022/07/09 12:32:59;;;;;;;0.93;0.60;;;21.50;99.90;;;;;;5000787;28;20026;-69
2022/07/09 12:35:26;;;;;;;1.08;0.60;;;21.30;99.90;;;;;;5000974;28;20518;-68
2022/07/09 12:37:52;;;;;;;8.82;0.93;;;21.10;99.90;;;;;;5000903;28;20022;-68
2022/07/09 12:40:18;;;;;;;1.70;1.00;;;20.90;99.90;;;;;;5001381;28;20042;-69
2022/07/09 12:42:44;;;;;;;0.68;0.55;;;21.00;99.90;;;;;;5000590;28;20030;-69